createdAt,value
2023-02-24T00:02:05.741Z,21.93
2023-02-24T00:04:39.467Z,21.53
2023-02-24T00:07:10.978Z,22.53
2023-02-24T00:09:40.714Z,22.17
2023-02-24T00:12:11.204Z,21.90
2023-02-24T00:14:40.189Z,21.30
2023-02-24T00:17:08.212Z,22.07
2023-02-24T00:19:35.306Z,21.53
2023-02-24T00:22:03.753Z,21.70
2023-02-24T00:24:31.099Z,23.10
2023-02-24T00:27:01.255Z,22.00
2023-02-24T00:29:29.588Z,21.20
2023-02-24T00:32:01.291Z,22.50
2023-02-24T00:34:33.455Z,23.90
2023-02-24T00:37:00.696Z,22.17
2023-02-24T00:39:33.394Z,22.70
2023-02-24T00:42:04.871Z,22.83
2023-02-24T00:44:37.688Z,22.23
2023-02-24T00:47:07.128Z,22.57
2023-02-24T00:49:35.829Z,23.67
2023-02-24T00:52:06.537Z,23.23
2023-02-24T00:54:36.404Z,24.20
2023-02-24T00:57:03.426Z,23.23
2023-02-24T00:59:30.345Z,22.00
2023-02-24T01:01:57.049Z,22.73
2023-02-24T01:04:23.722Z,21.67
2023-02-24T01:07:00.115Z,21.97
2023-02-24T01:09:29.790Z,22.10
2023-02-24T01:12:16.788Z,22.93
2023-02-24T01:14:47.690Z,22.73
2023-02-24T01:17:16.145Z,22.27
2023-02-24T01:19:44.637Z,23.23
2023-02-24T01:22:14.888Z,21.73
2023-02-24T01:24:43.260Z,21.63
2023-02-24T01:27:12.299Z,22.13
2023-02-24T01:29:39.679Z,22.43
2023-02-24T01:32:14.193Z,21.20
2023-02-24T01:34:42.415Z,22.80
2023-02-24T01:37:09.863Z,21.73
2023-02-24T01:39:36.567Z,23.07
2023-02-24T01:42:06.189Z,22.37
2023-02-24T01:44:33.209Z,21.47
2023-02-24T01:47:03.907Z,22.00
2023-02-24T01:49:35.395Z,21.93
2023-02-24T01:52:05.924Z,21.40
2023-02-24T01:54:39.080Z,21.30
2023-02-24T01:57:07.978Z,21.00
2023-02-24T01:59:35.491Z,21.17
2023-02-24T02:02:07.061Z,22.67
2023-02-24T02:04:47.927Z,21.87
2023-02-24T02:07:18.387Z,21.70
2023-02-24T02:09:47.031Z,21.37
2023-02-24T02:12:14.267Z,21.73
2023-02-24T02:14:52.185Z,21.30
2023-02-24T02:17:27.955Z,20.53
2023-02-24T02:20:07.496Z,20.97
2023-02-24T02:22:54.396Z,20.37
2023-02-24T02:25:54.670Z,20.03
2023-02-24T02:28:53.919Z,19.43
2023-02-24T02:31:21.138Z,19.60
2023-02-24T02:34:16.955Z,20.03
2023-02-24T02:36:54.185Z,20.30
2023-02-24T02:39:33.034Z,18.33
2023-02-24T02:42:18.229Z,18.67
2023-02-24T02:45:08.681Z,19.87
2023-02-24T02:47:51.835Z,19.13
2023-02-24T02:50:48.153Z,21.40
2023-02-24T02:53:25.294Z,20.10
2023-02-24T02:55:59.162Z,20.67
2023-02-24T02:58:31.770Z,19.87
2023-02-24T03:01:02.513Z,20.63
2023-02-24T03:03:40.246Z,20.43
2023-02-24T03:06:13.081Z,19.83
2023-02-24T03:08:48.604Z,19.80
2023-02-24T03:11:18.655Z,20.73
2023-02-24T03:13:49.618Z,19.73
2023-02-24T03:16:18.101Z,18.83
2023-02-24T03:18:54.223Z,20.67
2023-02-24T03:21:40.752Z,18.70
2023-02-24T03:24:08.648Z,18.53
2023-02-24T03:26:42.010Z,19.47
2023-02-24T03:29:23.830Z,17.80
2023-02-24T03:32:04.904Z,19.10
2023-02-24T03:34:58.055Z,18.17
2023-02-24T03:37:27.979Z,17.57
2023-02-24T03:39:59.555Z,18.73
2023-02-24T03:42:32.610Z,19.63
2023-02-24T03:45:01.409Z,18.90
2023-02-24T03:47:28.183Z,18.27
2023-02-24T03:49:54.815Z,18.33
2023-02-24T03:52:36.148Z,18.20
2023-02-24T03:55:23.668Z,19.03
2023-02-24T03:58:20.988Z,18.47
2023-02-24T04:00:58.400Z,18.60
2023-02-24T04:03:34.712Z,17.93
2023-02-24T04:06:27.477Z,17.77
2023-02-24T04:09:04.594Z,18.70
2023-02-24T04:11:42.686Z,18.40
2023-02-24T04:14:18.660Z,18.13
2023-02-24T04:17:00.596Z,19.70
2023-02-24T04:19:32.211Z,18.33
2023-02-24T04:22:00.473Z,18.37
2023-02-24T04:24:31.983Z,18.43
2023-02-24T04:27:02.662Z,19.20
2023-02-24T04:29:37.942Z,17.80
2023-02-24T04:32:10.691Z,17.07
2023-02-24T04:34:40.307Z,19.03
2023-02-24T04:37:07.154Z,17.43
2023-02-24T04:39:38.341Z,18.13
2023-02-24T04:42:10.815Z,17.73
2023-02-24T04:44:37.493Z,18.27
2023-02-24T04:47:04.250Z,18.57
2023-02-24T04:49:30.955Z,18.43
2023-02-24T04:51:57.612Z,18.23
2023-02-24T04:54:24.402Z,17.60
2023-02-24T04:56:52.360Z,18.90
2023-02-24T04:59:20.459Z,17.90
2023-02-24T05:01:51.134Z,18.43
2023-02-24T05:04:18.242Z,18.17
2023-02-24T05:06:45.587Z,17.60
2023-02-24T05:09:19.377Z,16.40
2023-02-24T05:11:48.922Z,17.43
2023-02-24T05:14:17.695Z,18.23
2023-02-24T05:16:46.945Z,18.80
2023-02-24T05:19:34.827Z,18.70
2023-02-24T05:22:03.217Z,18.37
2023-02-24T05:24:31.035Z,18.83
2023-02-24T05:26:59.180Z,18.80
2023-02-24T05:29:31.354Z,18.30
2023-02-24T05:32:02.397Z,17.80
2023-02-24T05:34:30.776Z,19.17
2023-02-24T05:36:59.072Z,18.17
2023-02-24T05:39:26.231Z,20.40
2023-02-24T05:41:54.673Z,18.70
2023-02-24T05:44:23.773Z,18.87
2023-02-24T05:46:56.567Z,19.07
2023-02-24T05:49:31.182Z,20.27
2023-02-24T05:52:00.721Z,19.27
2023-02-24T05:54:30.047Z,18.50
2023-02-24T05:57:05.503Z,18.17
2023-02-24T05:59:33.089Z,17.97
2023-02-24T06:02:06.835Z,18.40
2023-02-24T06:04:45.603Z,18.27
2023-02-24T06:07:19.531Z,20.13
2023-02-24T06:09:53.660Z,19.47
2023-02-24T06:12:22.148Z,19.23
2023-02-24T06:14:48.931Z,19.23
2023-02-24T06:17:17.030Z,18.20
2023-02-24T06:19:44.759Z,19.87
2023-02-24T06:22:16.224Z,18.50
2023-02-24T06:24:45.686Z,20.43
2023-02-24T06:27:21.333Z,19.37
2023-02-24T06:29:53.758Z,19.20
2023-02-24T06:32:24.258Z,20.10
2023-02-24T06:34:51.962Z,18.47
2023-02-24T06:37:18.698Z,18.47
2023-02-24T06:39:45.781Z,18.63
2023-02-24T06:42:12.763Z,18.93
2023-02-24T06:44:40.651Z,18.87
2023-02-24T06:47:10.957Z,18.80
2023-02-24T06:49:37.670Z,18.10
2023-02-24T06:52:04.692Z,20.87
2023-02-24T06:54:35.707Z,19.07
2023-02-24T06:57:03.417Z,19.27
2023-02-24T06:59:30.749Z,20.20
2023-02-24T07:02:04.444Z,21.33
2023-02-24T07:04:41.817Z,20.43
2023-02-24T07:07:08.540Z,20.00
2023-02-24T07:09:35.455Z,18.93
2023-02-24T07:12:04.404Z,18.80
2023-02-24T07:14:31.582Z,19.23
2023-02-24T07:16:59.384Z,19.17
2023-02-24T07:19:29.046Z,20.03
2023-02-24T07:22:00.246Z,21.47
2023-02-24T07:24:45.991Z,20.50
2023-02-24T07:27:22.025Z,19.57
2023-02-24T07:29:52.733Z,20.40
2023-02-24T07:32:22.360Z,21.03
2023-02-24T07:34:49.242Z,18.77
2023-02-24T07:37:16.673Z,19.50
2023-02-24T07:39:43.360Z,20.30
2023-02-24T07:42:13.289Z,21.27
2023-02-24T07:44:46.124Z,19.63
2023-02-24T07:47:12.774Z,19.60
2023-02-24T07:49:40.771Z,23.20
2023-02-24T07:52:08.090Z,22.83
2023-02-24T07:54:35.109Z,20.70
2023-02-24T07:57:01.799Z,20.47
2023-02-24T07:59:32.271Z,20.00
2023-02-24T08:02:00.477Z,20.57
2023-02-24T08:04:29.897Z,21.83
2023-02-24T08:06:58.941Z,19.73
2023-02-24T08:09:46.774Z,18.83
2023-02-24T08:12:18.633Z,19.93
2023-02-24T08:14:50.650Z,20.10
2023-02-24T08:17:26.403Z,19.97
2023-02-24T08:20:20.901Z,20.03
2023-02-24T08:22:53.708Z,19.17
2023-02-24T08:25:35.203Z,20.23
2023-02-24T08:28:09.260Z,20.70
2023-02-24T08:30:40.145Z,19.77
2023-02-24T08:33:09.827Z,20.10
2023-02-24T08:35:39.329Z,20.90
2023-02-24T08:38:09.709Z,20.90
2023-02-24T08:40:54.402Z,21.00
2023-02-24T08:43:30.693Z,20.40
2023-02-24T08:46:26.075Z,20.33
2023-02-24T08:48:56.868Z,21.10
2023-02-24T08:51:31.061Z,20.93
2023-02-24T08:54:00.163Z,21.27
2023-02-24T08:56:34.524Z,19.40
2023-02-24T08:59:07.890Z,19.33
2023-02-24T09:01:37.513Z,20.07
2023-02-24T09:04:10.674Z,19.13
2023-02-24T09:07:09.697Z,19.93
2023-02-24T09:09:42.042Z,18.57
2023-02-24T09:12:10.399Z,19.30
2023-02-24T09:14:37.401Z,19.77
2023-02-24T09:17:07.059Z,19.87
2023-02-24T09:19:46.180Z,35.13
2023-02-24T09:22:53.398Z,23.53
2023-02-24T09:25:24.030Z,19.30
2023-02-24T09:28:08.085Z,19.47
2023-02-24T09:30:53.934Z,18.80
2023-02-24T09:33:28.124Z,19.40
2023-02-24T09:36:12.731Z,18.13
2023-02-24T09:39:00.824Z,17.37
2023-02-24T09:42:02.432Z,17.73
2023-02-24T09:44:44.327Z,19.10
2023-02-24T09:47:31.147Z,16.97
2023-02-24T09:50:04.921Z,23.13
2023-02-24T09:52:41.881Z,18.77
2023-02-24T09:55:25.973Z,16.17
2023-02-24T09:58:15.960Z,17.43
2023-02-24T10:00:51.723Z,16.33
2023-02-24T10:03:42.423Z,17.50
2023-02-24T10:06:20.769Z,15.83
2023-02-24T10:08:56.781Z,15.60
2023-02-24T10:11:32.858Z,14.50
2023-02-24T10:14:06.000Z,15.00
2023-02-24T10:16:43.432Z,16.53
2023-02-24T10:19:28.832Z,18.00
2023-02-24T10:22:08.150Z,16.23
2023-02-24T10:24:47.440Z,17.67
2023-02-24T10:27:23.772Z,17.03
2023-02-24T10:30:19.827Z,17.67
2023-02-24T10:32:58.828Z,16.10
2023-02-24T10:35:33.462Z,15.50
2023-02-24T10:38:05.318Z,15.20
2023-02-24T10:40:46.866Z,13.87
2023-02-24T10:43:20.306Z,14.90
2023-02-24T10:45:48.235Z,13.87
2023-02-24T10:48:41.054Z,13.53
2023-02-24T10:51:18.999Z,12.90
2023-02-24T10:54:09.772Z,10.70
2023-02-24T10:56:55.327Z,9.77
2023-02-24T10:59:25.124Z,9.10
2023-02-24T11:02:29.238Z,9.83
2023-02-24T11:04:58.570Z,10.83
2023-02-24T11:07:33.439Z,12.60
2023-02-24T11:10:11.438Z,11.80
2023-02-24T11:13:09.966Z,10.20
2023-02-24T11:16:12.094Z,10.40
2023-02-24T11:18:40.123Z,10.63
2023-02-24T11:21:10.965Z,11.17
2023-02-24T11:23:44.826Z,10.47
2023-02-24T11:26:22.964Z,10.80
2023-02-24T11:28:58.343Z,8.80
2023-02-24T11:31:33.105Z,8.80
2023-02-24T11:34:04.611Z,8.73
2023-02-24T11:36:34.315Z,8.87
2023-02-24T11:39:24.270Z,8.90
2023-02-24T11:41:55.329Z,7.03
2023-02-24T11:44:51.700Z,7.63
2023-02-24T11:47:23.868Z,7.33
2023-02-24T11:50:11.921Z,7.67
2023-02-24T11:52:43.493Z,6.97
2023-02-24T11:55:36.038Z,6.87
2023-02-24T11:58:29.810Z,6.90
2023-02-24T12:01:05.758Z,6.70
2023-02-24T12:03:53.658Z,7.83
2023-02-24T12:06:51.244Z,5.90
2023-02-24T12:09:23.675Z,9.43
2023-02-24T12:11:53.825Z,7.00
2023-02-24T12:14:39.687Z,7.30
2023-02-24T12:17:23.881Z,7.40
2023-02-24T12:20:07.430Z,6.57
2023-02-24T12:22:47.152Z,8.63
2023-02-24T12:25:14.980Z,6.03
2023-02-24T12:28:18.290Z,6.13
2023-02-24T12:31:03.153Z,6.27
2023-02-24T12:34:11.979Z,7.80
2023-02-24T12:36:52.795Z,6.73
2023-02-24T12:39:31.750Z,6.17
2023-02-24T12:42:16.729Z,6.37
2023-02-24T12:45:03.410Z,6.03
2023-02-24T12:47:52.008Z,6.43
2023-02-24T12:50:30.832Z,6.43
2023-02-24T12:53:16.136Z,6.77
2023-02-24T12:55:45.546Z,5.97
2023-02-24T12:58:15.148Z,5.90
2023-02-24T13:00:59.760Z,5.83
2023-02-24T13:03:45.317Z,12.23
2023-02-24T13:06:18.967Z,7.53
2023-02-24T13:08:48.425Z,5.83
2023-02-24T13:11:52.417Z,5.40
2023-02-24T13:14:24.648Z,5.43
2023-02-24T13:16:51.615Z,5.73
2023-02-24T13:19:27.613Z,5.03
2023-02-24T13:22:11.992Z,5.53
2023-02-24T13:24:43.808Z,4.90
2023-02-24T13:27:13.157Z,6.07
2023-02-24T13:30:01.243Z,5.03
2023-02-24T13:32:37.547Z,5.97
2023-02-24T13:35:15.010Z,6.33
2023-02-24T13:37:44.690Z,6.07
2023-02-24T13:40:23.007Z,6.80
2023-02-24T13:43:01.563Z,6.10
2023-02-24T13:45:36.485Z,5.80
2023-02-24T13:48:22.058Z,5.40
2023-02-24T13:51:17.972Z,5.03
2023-02-24T13:54:20.062Z,5.73
2023-02-24T13:57:04.819Z,5.27
2023-02-24T13:59:50.315Z,5.73
2023-02-24T14:02:24.422Z,5.27
2023-02-24T14:04:54.105Z,5.80
2023-02-24T14:07:22.722Z,4.63
2023-02-24T14:09:55.100Z,4.50
2023-02-24T14:12:26.950Z,4.80
2023-02-24T14:14:54.627Z,4.40
2023-02-24T14:17:28.516Z,4.83
2023-02-24T14:20:19.924Z,4.77
2023-02-24T14:22:49.274Z,5.43
2023-02-24T14:25:17.893Z,4.93
2023-02-24T14:27:48.287Z,4.93
2023-02-24T14:30:35.740Z,4.83
2023-02-24T14:33:04.486Z,4.70
2023-02-24T14:35:39.370Z,4.63
2023-02-24T14:38:06.342Z,4.83
2023-02-24T14:40:33.405Z,4.73
2023-02-24T14:43:00.353Z,4.90
2023-02-24T14:45:28.761Z,5.00
2023-02-24T14:47:56.544Z,5.07
2023-02-24T14:50:28.173Z,4.90
2023-02-24T14:52:59.475Z,4.23
2023-02-24T14:55:36.985Z,3.97
2023-02-24T14:58:18.506Z,4.60
2023-02-24T15:00:52.962Z,4.20
2023-02-24T15:03:31.678Z,4.90
2023-02-24T15:06:04.614Z,5.20
2023-02-24T15:08:38.458Z,5.00
2023-02-24T15:11:21.050Z,4.90
2023-02-24T15:13:55.541Z,5.03
2023-02-24T15:16:29.480Z,4.30
2023-02-24T15:19:01.041Z,5.80
2023-02-24T15:21:32.102Z,5.17
2023-02-24T15:24:19.591Z,4.87
2023-02-24T15:26:52.520Z,5.50
2023-02-24T15:29:27.860Z,5.13
2023-02-24T15:31:56.117Z,5.67
2023-02-24T15:34:28.671Z,5.20
2023-02-24T15:37:03.088Z,5.70
2023-02-24T15:39:32.002Z,5.30
2023-02-24T15:42:28.610Z,6.27
2023-02-24T15:44:58.372Z,4.97
2023-02-24T15:47:28.241Z,5.30
2023-02-24T15:49:55.058Z,5.20
2023-02-24T15:52:30.942Z,5.30
2023-02-24T15:55:00.432Z,8.50
2023-02-24T15:57:30.114Z,6.47
2023-02-24T15:59:56.903Z,5.60
2023-02-24T16:02:24.822Z,5.33
2023-02-24T16:04:52.281Z,5.77
2023-02-24T16:07:30.456Z,5.43
2023-02-24T16:09:59.137Z,5.73
2023-02-24T16:12:32.017Z,5.37
2023-02-24T16:15:03.233Z,5.60
2023-02-24T16:17:42.299Z,5.73
2023-02-24T16:20:15.290Z,6.33
2023-02-24T16:22:41.961Z,6.70
2023-02-24T16:25:09.254Z,5.97
2023-02-24T16:27:36.241Z,5.67
2023-02-24T16:30:03.623Z,5.60
2023-02-24T16:32:30.517Z,5.47
2023-02-24T16:34:57.391Z,5.30
2023-02-24T16:37:28.714Z,5.57
2023-02-24T16:39:55.884Z,5.67
2023-02-24T16:42:31.229Z,4.70
2023-02-24T16:44:57.872Z,4.50
2023-02-24T16:47:25.534Z,5.33
2023-02-24T16:49:56.129Z,5.17
2023-02-24T16:52:24.638Z,5.33
2023-02-24T16:54:51.368Z,5.53
2023-02-24T16:57:18.080Z,5.03
2023-02-24T16:59:44.795Z,4.57
2023-02-24T17:02:20.280Z,4.73
2023-02-24T17:04:47.079Z,4.70
2023-02-24T17:07:16.010Z,4.97
2023-02-24T17:09:42.667Z,4.27
2023-02-24T17:12:13.353Z,4.30
2023-02-24T17:14:40.010Z,3.93
2023-02-24T17:17:06.745Z,3.17
2023-02-24T17:19:33.511Z,3.67
2023-02-24T17:22:00.162Z,3.57
2023-02-24T17:24:28.374Z,3.80
2023-02-24T17:26:58.642Z,4.00
2023-02-24T17:29:25.412Z,3.80
2023-02-24T17:31:52.215Z,3.90
2023-02-24T17:34:21.288Z,5.53
2023-02-24T17:36:47.956Z,5.20
2023-02-24T17:39:14.628Z,3.93
2023-02-24T17:41:41.294Z,3.87
2023-02-24T17:44:07.972Z,4.00
2023-02-24T17:46:34.678Z,4.27
2023-02-24T17:49:03.109Z,5.60
2023-02-24T17:51:29.814Z,4.17
2023-02-24T17:53:56.849Z,4.40
2023-02-24T17:56:23.900Z,5.13
2023-02-24T17:58:50.728Z,6.17
2023-02-24T18:01:17.363Z,5.50
2023-02-24T18:03:44.163Z,4.73
2023-02-24T18:06:12.208Z,4.63
2023-02-24T18:08:39.816Z,4.27
2023-02-24T18:11:09.729Z,3.67
2023-02-24T18:13:36.404Z,4.23
2023-02-24T18:16:11.505Z,4.17
2023-02-24T18:18:38.667Z,3.57
2023-02-24T18:21:06.148Z,3.10
2023-02-24T18:23:33.392Z,3.50
2023-02-24T18:26:05.482Z,3.60
2023-02-24T18:28:33.056Z,3.60
2023-02-24T18:31:01.158Z,2.50
2023-02-24T18:33:27.992Z,3.60
2023-02-24T18:35:59.358Z,3.80
2023-02-24T18:38:26.389Z,3.47
2023-02-24T18:41:05.115Z,3.23
2023-02-24T18:43:32.671Z,8.57
2023-02-24T18:46:05.685Z,5.87
2023-02-24T18:48:33.350Z,4.33
2023-02-24T18:51:01.082Z,2.47
2023-02-24T18:53:30.694Z,1.80
2023-02-24T18:56:13.053Z,1.60
2023-02-24T18:58:40.719Z,1.43
2023-02-24T19:01:31.277Z,1.23
2023-02-24T19:03:59.220Z,1.73
2023-02-24T19:06:28.960Z,1.63
2023-02-24T19:09:22.629Z,1.50
2023-02-24T19:11:49.983Z,1.90
2023-02-24T19:14:17.014Z,1.80
2023-02-24T19:16:43.916Z,1.63
2023-02-24T19:19:14.156Z,3.23
2023-02-24T19:21:40.907Z,2.50
2023-02-24T19:24:08.339Z,2.00
2023-02-24T19:26:35.552Z,14.87
2023-02-24T19:29:03.832Z,7.60
2023-02-24T19:31:32.952Z,3.07
2023-02-24T19:34:02.982Z,2.73
2023-02-24T19:36:32.048Z,2.73
2023-02-24T19:38:58.848Z,1.70
2023-02-24T19:41:25.616Z,1.90
2023-02-24T19:43:52.614Z,1.33
2023-02-24T19:46:19.964Z,1.20
2023-02-24T19:48:47.225Z,1.37
2023-02-24T19:51:19.997Z,1.57
2023-02-24T19:53:47.770Z,1.50
2023-02-24T19:56:14.731Z,1.90
2023-02-24T19:58:41.390Z,1.90
2023-02-24T20:01:10.452Z,2.70
2023-02-24T20:03:42.742Z,2.30
2023-02-24T20:06:21.946Z,2.33
2023-02-24T20:08:48.847Z,2.37
2023-02-24T20:11:15.678Z,1.97
2023-02-24T20:13:42.372Z,2.30
2023-02-24T20:16:11.964Z,2.87
2023-02-24T20:18:39.854Z,2.33
2023-02-24T20:21:07.643Z,3.77
2023-02-24T20:23:34.358Z,2.70
2023-02-24T20:26:01.707Z,2.97
2023-02-24T20:28:29.470Z,2.97
2023-02-24T20:30:58.213Z,2.97
2023-02-24T20:33:25.940Z,3.70
2023-02-24T20:35:52.576Z,3.47
2023-02-24T20:38:19.242Z,3.20
2023-02-24T20:40:46.008Z,3.37
2023-02-24T20:43:12.704Z,3.17
2023-02-24T20:45:40.816Z,3.77
2023-02-24T20:48:08.767Z,3.87
2023-02-24T20:50:35.989Z,4.00
2023-02-24T20:53:04.138Z,3.40
2023-02-24T20:55:31.200Z,3.03
2023-02-24T20:57:58.129Z,3.73
2023-02-24T21:00:24.918Z,3.30
2023-02-24T21:02:52.055Z,3.40
2023-02-24T21:05:22.286Z,3.50
2023-02-24T21:07:50.136Z,2.70
2023-02-24T21:10:18.260Z,3.43
2023-02-24T21:12:45.714Z,3.03
2023-02-24T21:15:12.430Z,2.63
2023-02-24T21:17:39.560Z,2.90
2023-02-24T21:20:11.039Z,3.00
2023-02-24T21:22:41.599Z,3.27
2023-02-24T21:25:10.695Z,3.30
2023-02-24T21:27:38.257Z,2.73
2023-02-24T21:30:08.711Z,3.13
2023-02-24T21:32:35.801Z,3.23
2023-02-24T21:35:03.050Z,3.57
2023-02-24T21:37:30.336Z,4.37
2023-02-24T21:39:57.004Z,3.50
2023-02-24T21:42:23.787Z,3.47
2023-02-24T21:44:57.145Z,3.43
2023-02-24T21:47:23.864Z,3.60
2023-02-24T21:49:51.131Z,3.93
2023-02-24T21:52:17.782Z,3.70
2023-02-24T21:54:44.441Z,3.47
2023-02-24T21:57:11.121Z,3.73
2023-02-24T21:59:37.791Z,4.23
2023-02-24T22:02:04.503Z,3.80
2023-02-24T22:04:31.188Z,3.90
2023-02-24T22:06:57.801Z,3.50
2023-02-24T22:09:25.432Z,3.70
2023-02-24T22:11:52.117Z,3.60
2023-02-24T22:14:19.201Z,3.70
2023-02-24T22:16:45.851Z,3.60
2023-02-24T22:19:12.838Z,4.13
2023-02-24T22:21:42.207Z,3.37
2023-02-24T22:24:12.506Z,3.83
2023-02-24T22:26:40.016Z,3.70
2023-02-24T22:29:07.050Z,4.13
2023-02-24T22:31:36.321Z,3.93
2023-02-24T22:34:04.336Z,3.50
2023-02-24T22:36:33.553Z,3.20
2023-02-24T22:39:01.645Z,2.90
2023-02-24T22:41:31.320Z,3.30
2023-02-24T22:43:58.742Z,3.70
2023-02-24T22:46:31.746Z,3.17
2023-02-24T22:48:58.749Z,3.23
2023-02-24T22:51:26.276Z,3.47
2023-02-24T22:53:54.207Z,3.10
2023-02-24T22:56:23.922Z,3.47
2023-02-24T22:58:50.886Z,3.23
2023-02-24T23:01:29.422Z,3.40
2023-02-24T23:03:58.808Z,3.77
2023-02-24T23:06:26.352Z,3.10
2023-02-24T23:08:54.263Z,3.00
2023-02-24T23:11:24.817Z,3.20
2023-02-24T23:13:52.140Z,2.63
2023-02-24T23:16:22.698Z,2.50
2023-02-24T23:18:54.226Z,2.73
2023-02-24T23:21:23.927Z,2.83
2023-02-24T23:23:56.779Z,3.03
2023-02-24T23:26:33.792Z,2.80
2023-02-24T23:29:01.258Z,3.07
2023-02-24T23:31:28.545Z,3.00
2023-02-24T23:33:55.516Z,3.50
2023-02-24T23:36:23.790Z,2.47
2023-02-24T23:38:51.261Z,3.07
2023-02-24T23:41:18.120Z,2.60
2023-02-24T23:43:44.772Z,2.53
2023-02-24T23:46:12.800Z,2.60
2023-02-24T23:48:39.987Z,2.90
2023-02-24T23:51:10.348Z,2.80
2023-02-24T23:53:38.523Z,2.73
2023-02-24T23:56:09.707Z,2.73
2023-02-24T23:58:39.864Z,2.90
